createdAt,value
2019-06-26T00:00:15.242Z,24.20
2019-06-26T00:02:44.103Z,24.20
2019-06-26T00:05:13.051Z,24.20
2019-06-26T00:07:42.020Z,24.20
2019-06-26T00:10:11.353Z,24.20
2019-06-26T00:12:40.281Z,24.10
2019-06-26T00:15:09.644Z,24.10
2019-06-26T00:17:38.475Z,24.10
2019-06-26T00:20:07.904Z,24.10
2019-06-26T00:22:36.819Z,24.10
2019-06-26T00:25:05.794Z,24.00
2019-06-26T00:27:34.933Z,24.00
2019-06-26T00:30:04.420Z,24.00
2019-06-26T00:32:33.541Z,23.90
2019-06-26T00:35:02.327Z,23.90
2019-06-26T00:37:31.170Z,23.90
2019-06-26T00:40:00.325Z,23.90
2019-06-26T00:42:29.554Z,23.90
2019-06-26T00:44:58.351Z,23.80
2019-06-26T00:47:27.346Z,23.80
2019-06-26T00:49:56.555Z,23.80
2019-06-26T00:52:25.586Z,23.80
2019-06-26T00:54:54.503Z,23.80
2019-06-26T00:57:23.561Z,23.80
2019-06-26T00:59:52.439Z,23.80
2019-06-26T01:02:21.895Z,23.80
2019-06-26T01:04:52.410Z,23.80
2019-06-26T01:07:21.202Z,23.80
2019-06-26T01:09:50.075Z,23.80
2019-06-26T01:12:19.050Z,23.70
2019-06-26T01:14:48.204Z,23.70
2019-06-26T01:17:17.155Z,23.70
2019-06-26T01:19:45.928Z,23.60
2019-06-26T01:22:14.965Z,23.60
2019-06-26T01:24:43.773Z,23.60
2019-06-26T01:27:31.846Z,23.60
2019-06-26T01:30:00.724Z,23.60
2019-06-26T01:32:30.489Z,23.50
2019-06-26T01:34:59.371Z,23.50
2019-06-26T01:37:28.344Z,23.50
2019-06-26T01:39:57.175Z,23.40
2019-06-26T01:42:26.114Z,23.40
2019-06-26T01:44:54.988Z,23.40
2019-06-26T01:47:24.126Z,23.40
2019-06-26T01:49:53.080Z,23.40
2019-06-26T01:52:21.967Z,23.30
2019-06-26T01:54:51.893Z,23.40
2019-06-26T01:57:20.836Z,23.30
2019-06-26T01:59:49.636Z,23.30
2019-06-26T02:02:18.703Z,23.30
2019-06-26T02:04:47.684Z,23.30
2019-06-26T02:07:16.512Z,23.30
2019-06-26T02:09:45.371Z,23.30
2019-06-26T02:12:14.484Z,23.20
2019-06-26T02:14:43.359Z,23.20
2019-06-26T02:17:12.160Z,23.20
2019-06-26T02:19:41.108Z,23.10
2019-06-26T02:22:10.044Z,23.20
2019-06-26T02:24:39.019Z,23.10
2019-06-26T02:27:07.937Z,23.10
2019-06-26T02:29:36.790Z,23.10
2019-06-26T02:32:06.117Z,23.10
2019-06-26T02:34:35.188Z,23.10
2019-06-26T02:37:04.494Z,23.10
2019-06-26T02:39:33.286Z,23.10
2019-06-26T02:42:02.062Z,23.10
2019-06-26T02:44:50.914Z,23.00
2019-06-26T02:47:18.542Z,23.00
2019-06-26T02:49:32.554Z,23.00
2019-06-26T02:52:01.694Z,23.00
2019-06-26T02:54:30.721Z,23.00
2019-06-26T02:56:59.614Z,23.00
2019-06-26T02:59:28.931Z,23.00
2019-06-26T03:01:57.830Z,22.90
2019-06-26T03:04:26.686Z,23.00
2019-06-26T03:06:55.554Z,22.90
2019-06-26T03:09:25.038Z,23.00
2019-06-26T03:11:54.015Z,23.00
2019-06-26T03:14:23.270Z,23.00
2019-06-26T03:16:52.209Z,23.00
2019-06-26T03:19:21.004Z,23.00
2019-06-26T03:21:49.826Z,23.00
2019-06-26T03:24:18.653Z,23.00
2019-06-26T03:26:47.615Z,23.10
2019-06-26T03:29:16.463Z,23.10
2019-06-26T03:31:45.264Z,23.10
2019-06-26T03:34:14.463Z,23.10
2019-06-26T03:36:45.980Z,23.10
2019-06-26T03:39:14.846Z,23.10
2019-06-26T03:41:43.745Z,23.20
2019-06-26T03:44:12.811Z,23.20
2019-06-26T03:46:41.753Z,23.20
2019-06-26T03:49:10.665Z,23.20
2019-06-26T03:51:39.458Z,23.20
2019-06-26T03:54:08.618Z,23.30
2019-06-26T03:56:37.694Z,23.30
2019-06-26T03:59:06.655Z,23.40
2019-06-26T04:01:35.453Z,23.40
2019-06-26T04:04:04.599Z,23.40
2019-06-26T04:06:33.776Z,23.40
2019-06-26T04:09:02.710Z,23.50
2019-06-26T04:11:31.703Z,23.60
2019-06-26T04:14:00.728Z,23.60
2019-06-26T04:16:29.590Z,23.70
2019-06-26T04:18:58.381Z,23.70
2019-06-26T04:21:27.299Z,23.80
2019-06-26T04:23:56.186Z,23.90
2019-06-26T04:26:25.054Z,23.90
2019-06-26T04:28:54.121Z,24.00
2019-06-26T04:31:22.934Z,24.10
2019-06-26T04:33:52.514Z,24.20
2019-06-26T04:36:21.643Z,24.20
2019-06-26T04:38:50.522Z,24.20
2019-06-26T04:41:19.325Z,24.30
2019-06-26T04:43:48.172Z,24.40
2019-06-26T04:46:16.944Z,24.50
2019-06-26T04:48:45.825Z,24.60
2019-06-26T04:51:14.710Z,24.70
2019-06-26T04:53:43.941Z,24.70
2019-06-26T04:56:12.798Z,24.80
2019-06-26T04:58:41.842Z,24.90
2019-06-26T05:01:10.655Z,25.00
2019-06-26T05:03:39.428Z,25.10
2019-06-26T05:06:08.200Z,25.20
2019-06-26T05:08:37.250Z,25.30
2019-06-26T05:11:06.555Z,25.40
2019-06-26T05:13:37.552Z,25.50
2019-06-26T05:16:14.855Z,25.60
2019-06-26T05:18:39.453Z,25.70
2019-06-26T05:21:08.346Z,25.80
2019-06-26T05:23:37.231Z,25.80
2019-06-26T05:26:06.124Z,25.90
2019-06-26T05:28:35.362Z,26.00
2019-06-26T05:31:04.565Z,26.10
2019-06-26T05:33:33.802Z,26.10
2019-06-26T05:36:02.890Z,26.20
2019-06-26T05:38:32.277Z,26.20
2019-06-26T05:41:01.173Z,26.30
2019-06-26T05:43:30.012Z,26.40
2019-06-26T05:45:59.027Z,26.40
2019-06-26T05:48:28.050Z,26.50
2019-06-26T05:50:56.956Z,26.50
2019-06-26T05:53:25.921Z,26.60
2019-06-26T05:55:55.174Z,26.60
2019-06-26T05:58:24.274Z,26.70
2019-06-26T06:00:53.165Z,26.70
2019-06-26T06:03:22.019Z,26.70
2019-06-26T06:05:51.053Z,26.80
2019-06-26T06:08:20.068Z,26.80
2019-06-26T06:10:48.999Z,26.90
2019-06-26T06:13:18.270Z,26.90
2019-06-26T06:15:47.063Z,27.00
2019-06-26T06:18:15.971Z,27.00
2019-06-26T06:20:44.791Z,27.10
2019-06-26T06:23:13.864Z,27.10
2019-06-26T06:25:42.832Z,27.10
2019-06-26T06:28:11.731Z,27.20
2019-06-26T06:30:40.817Z,27.20
2019-06-26T06:33:10.024Z,27.20
2019-06-26T06:35:38.841Z,27.20
2019-06-26T06:38:07.704Z,27.20
2019-06-26T06:40:36.586Z,27.30
2019-06-26T06:43:05.418Z,27.40
2019-06-26T06:45:34.434Z,27.40
2019-06-26T06:48:03.550Z,27.50
2019-06-26T06:50:32.510Z,27.50
2019-06-26T06:53:01.620Z,27.60
2019-06-26T06:55:30.785Z,27.60
2019-06-26T06:57:59.557Z,27.60
2019-06-26T07:00:28.794Z,27.60
2019-06-26T07:02:57.822Z,27.70
2019-06-26T07:05:26.947Z,27.80
2019-06-26T07:07:56.560Z,28.00
2019-06-26T07:10:26.463Z,28.20
2019-06-26T07:12:55.941Z,28.40
2019-06-26T07:15:26.089Z,28.60
2019-06-26T07:17:55.695Z,28.80
2019-06-26T07:20:25.443Z,28.80
2019-06-26T07:22:54.726Z,28.90
2019-06-26T07:25:23.868Z,28.90
2019-06-26T07:27:52.977Z,29.00
2019-06-26T07:30:22.305Z,29.00
2019-06-26T07:32:51.652Z,29.00
2019-06-26T07:35:20.507Z,29.00
2019-06-26T07:37:49.834Z,28.90
2019-06-26T07:40:18.790Z,28.90
2019-06-26T07:42:47.922Z,28.90
2019-06-26T07:45:17.830Z,28.80
2019-06-26T07:47:46.726Z,28.80
2019-06-26T07:50:15.951Z,28.80
2019-06-26T07:52:44.918Z,28.80
2019-06-26T07:55:13.811Z,28.80
2019-06-26T07:57:42.780Z,28.70
2019-06-26T08:00:12.853Z,28.70
2019-06-26T08:02:42.255Z,28.60
2019-06-26T08:05:11.385Z,28.60
2019-06-26T08:07:40.171Z,28.70
2019-06-26T08:10:09.512Z,28.70
2019-06-26T08:12:38.800Z,28.70
2019-06-26T08:15:08.378Z,28.80
2019-06-26T08:17:37.393Z,28.80
2019-06-26T08:20:06.522Z,28.70
2019-06-26T08:22:35.479Z,28.80
2019-06-26T08:25:04.898Z,28.80
2019-06-26T08:27:33.778Z,28.90
2019-06-26T08:30:02.821Z,28.90
2019-06-26T08:32:31.654Z,28.90
2019-06-26T08:35:00.582Z,29.00
2019-06-26T08:37:29.442Z,28.90
2019-06-26T08:39:58.228Z,29.00
2019-06-26T08:42:27.005Z,29.00
2019-06-26T08:44:55.857Z,29.00
2019-06-26T08:47:24.988Z,29.00
2019-06-26T08:49:54.150Z,29.10
2019-06-26T08:52:23.693Z,29.10
2019-06-26T08:54:52.739Z,29.20
2019-06-26T08:57:21.557Z,29.30
2019-06-26T08:59:50.507Z,29.30
2019-06-26T09:02:19.329Z,29.40
2019-06-26T09:04:48.110Z,29.40
2019-06-26T09:07:16.956Z,29.60
2019-06-26T09:09:46.503Z,29.60
2019-06-26T09:12:15.554Z,29.60
2019-06-26T09:14:44.396Z,29.70
2019-06-26T09:17:13.239Z,29.70
2019-06-26T09:19:42.091Z,29.80
2019-06-26T09:22:10.873Z,29.80
2019-06-26T09:24:39.739Z,29.90
2019-06-26T09:27:09.325Z,29.90
2019-06-26T09:29:38.213Z,30.00
2019-06-26T09:32:07.005Z,30.00
2019-06-26T09:34:35.782Z,30.00
2019-06-26T09:37:04.638Z,30.10
2019-06-26T09:39:33.560Z,30.10
2019-06-26T09:42:02.339Z,30.10
2019-06-26T09:44:31.172Z,30.20
2019-06-26T09:47:00.163Z,30.20
2019-06-26T09:49:28.940Z,30.20
2019-06-26T09:51:57.733Z,30.20
2019-06-26T09:54:26.606Z,30.30
2019-06-26T09:56:55.487Z,30.30
2019-06-26T09:59:24.263Z,30.30
2019-06-26T10:01:53.110Z,30.30
2019-06-26T10:04:21.979Z,30.40
2019-06-26T10:06:50.807Z,30.40
2019-06-26T10:09:19.739Z,30.40
2019-06-26T10:11:48.602Z,30.40
2019-06-26T10:14:17.724Z,30.40
2019-06-26T10:16:46.525Z,30.40
2019-06-26T10:19:15.362Z,30.40
2019-06-26T10:21:44.343Z,30.50
2019-06-26T10:24:13.549Z,30.50
2019-06-26T10:26:42.516Z,30.50
2019-06-26T10:29:11.645Z,30.60
2019-06-26T10:31:40.862Z,30.60
2019-06-26T10:34:10.309Z,30.50
2019-06-26T10:36:39.510Z,30.50
2019-06-26T10:39:09.185Z,30.50
2019-06-26T10:41:38.352Z,30.50
2019-06-26T10:44:07.805Z,30.50
2019-06-26T10:46:36.810Z,30.50
2019-06-26T10:49:05.642Z,30.50
2019-06-26T10:51:34.526Z,30.40
2019-06-26T10:54:03.544Z,30.30
2019-06-26T10:56:32.358Z,30.30
2019-06-26T10:59:01.657Z,30.30
2019-06-26T11:01:30.601Z,30.20
2019-06-26T11:03:59.759Z,30.30
2019-06-26T11:06:29.193Z,30.20
2019-06-26T11:08:58.027Z,30.20
2019-06-26T11:11:26.879Z,30.20
2019-06-26T11:13:55.751Z,30.20
2019-06-26T11:16:24.689Z,30.20
2019-06-26T11:18:53.666Z,30.20
2019-06-26T11:21:22.544Z,30.20
2019-06-26T11:23:51.318Z,30.20
2019-06-26T11:26:20.365Z,30.10
2019-06-26T11:28:49.127Z,30.10
2019-06-26T11:31:18.082Z,30.10
2019-06-26T11:33:47.034Z,30.20
2019-06-26T11:36:15.803Z,30.10
2019-06-26T11:38:44.583Z,30.10
2019-06-26T11:41:13.477Z,30.10
2019-06-26T11:43:42.255Z,30.10
2019-06-26T11:46:11.325Z,30.00
2019-06-26T11:48:40.446Z,30.10
2019-06-26T11:51:09.343Z,30.10
2019-06-26T11:53:38.205Z,30.10
2019-06-26T11:56:07.947Z,30.10
2019-06-26T11:58:37.222Z,30.20
2019-06-26T12:01:06.339Z,30.20
2019-06-26T12:03:35.288Z,30.10
2019-06-26T12:06:17.808Z,30.00
2019-06-26T12:08:34.868Z,29.90
2019-06-26T12:11:03.749Z,29.80
2019-06-26T12:13:33.525Z,29.80
2019-06-26T12:16:02.920Z,29.90
2019-06-26T12:18:31.737Z,29.90
2019-06-26T12:21:00.621Z,29.80
2019-06-26T12:23:29.525Z,29.80
2019-06-26T12:25:58.422Z,29.80
2019-06-26T12:28:27.547Z,29.80
2019-06-26T12:30:56.625Z,29.80
2019-06-26T12:33:25.594Z,29.80
2019-06-26T12:35:54.528Z,29.80
2019-06-26T12:38:23.470Z,29.80
2019-06-26T12:40:52.269Z,29.80
2019-06-26T12:43:21.799Z,29.80
2019-06-26T12:45:50.755Z,29.80
2019-06-26T12:48:19.626Z,29.80
2019-06-26T12:50:49.020Z,29.70
2019-06-26T12:53:18.181Z,29.70
2019-06-26T12:55:47.108Z,29.70
2019-06-26T12:58:19.630Z,29.70
2019-06-26T13:00:47.179Z,29.70
2019-06-26T13:03:15.980Z,29.70
2019-06-26T13:05:44.899Z,29.70
2019-06-26T13:08:13.840Z,29.70
2019-06-26T13:10:49.450Z,29.60
2019-06-26T13:13:13.335Z,29.60
2019-06-26T13:15:42.362Z,29.50
2019-06-26T13:18:11.401Z,29.50
2019-06-26T13:20:52.123Z,29.50
2019-06-26T13:23:14.677Z,29.50
2019-06-26T13:25:41.986Z,29.50
2019-06-26T13:28:10.889Z,29.40
2019-06-26T13:30:40.124Z,29.40
2019-06-26T13:33:08.963Z,29.40
2019-06-26T13:35:37.822Z,29.40
2019-06-26T13:38:06.682Z,29.30
2019-06-26T13:40:35.486Z,29.20
2019-06-26T13:43:04.445Z,29.20
2019-06-26T13:45:33.390Z,29.10
2019-06-26T13:48:02.412Z,29.10
2019-06-26T13:50:31.386Z,29.00
2019-06-26T13:53:00.459Z,29.00
2019-06-26T13:55:29.364Z,29.00
2019-06-26T13:57:58.738Z,28.90
2019-06-26T14:00:27.638Z,28.80
2019-06-26T14:02:56.423Z,28.80
2019-06-26T14:05:25.332Z,28.80
2019-06-26T14:07:54.564Z,28.80
2019-06-26T14:10:23.697Z,28.70
2019-06-26T14:12:52.545Z,28.70
2019-06-26T14:15:21.467Z,28.60
2019-06-26T14:17:50.625Z,28.60
2019-06-26T14:20:19.869Z,28.60
2019-06-26T14:22:48.975Z,28.50
2019-06-26T14:25:17.993Z,28.50
2019-06-26T14:27:47.103Z,28.40
2019-06-26T14:30:16.338Z,28.40
2019-06-26T14:32:45.276Z,28.50
2019-06-26T14:35:14.553Z,28.40
2019-06-26T14:37:43.732Z,28.40
2019-06-26T14:40:13.638Z,28.40
2019-06-26T14:42:42.573Z,28.30
2019-06-26T14:45:11.814Z,28.30
2019-06-26T14:47:40.626Z,28.20
2019-06-26T14:50:09.844Z,28.10
2019-06-26T14:52:38.678Z,28.00
2019-06-26T14:55:08.972Z,28.00
2019-06-26T14:57:37.753Z,28.10
2019-06-26T15:00:07.896Z,28.00
2019-06-26T15:02:36.871Z,28.00
2019-06-26T15:05:06.084Z,28.00
2019-06-26T15:07:34.891Z,28.00
2019-06-26T15:10:04.391Z,27.90
2019-06-26T15:12:33.282Z,27.80
2019-06-26T15:15:02.529Z,27.80
2019-06-26T15:17:31.693Z,27.70
2019-06-26T15:20:00.830Z,27.70
2019-06-26T15:22:29.767Z,27.70
2019-06-26T15:24:58.678Z,27.70
2019-06-26T15:27:27.922Z,27.60
2019-06-26T15:29:56.898Z,27.60
2019-06-26T15:32:25.827Z,27.60
2019-06-26T15:34:54.621Z,27.50
2019-06-26T15:37:24.389Z,27.30
2019-06-26T15:39:53.152Z,27.20
2019-06-26T15:42:22.459Z,27.10
2019-06-26T15:44:51.298Z,27.00
2019-06-26T15:47:20.493Z,26.90
2019-06-26T15:49:49.946Z,26.90
2019-06-26T15:52:19.205Z,26.70
2019-06-26T15:54:48.135Z,26.70
2019-06-26T15:57:17.243Z,26.60
2019-06-26T15:59:46.006Z,26.40
2019-06-26T16:02:14.954Z,26.30
2019-06-26T16:04:44.299Z,26.20
2019-06-26T16:07:13.134Z,26.10
2019-06-26T16:09:42.315Z,26.00
2019-06-26T16:12:11.116Z,26.00
2019-06-26T16:14:40.212Z,25.80
2019-06-26T16:17:15.924Z,25.70
2019-06-26T16:19:44.719Z,25.50
2019-06-26T16:22:13.503Z,25.20
2019-06-26T16:24:42.434Z,24.90
2019-06-26T16:27:11.580Z,24.80
2019-06-26T16:29:40.841Z,24.60
2019-06-26T16:32:10.284Z,24.60
2019-06-26T16:34:39.668Z,24.60
2019-06-26T16:37:08.872Z,24.50
2019-06-26T16:39:37.768Z,24.40
2019-06-26T16:42:06.659Z,24.30
2019-06-26T16:44:35.425Z,24.20
2019-06-26T16:47:04.524Z,24.20
2019-06-26T16:49:33.380Z,24.10
2019-06-26T16:52:02.654Z,24.10
2019-06-26T16:54:31.453Z,24.10
2019-06-26T16:57:00.233Z,24.00
2019-06-26T16:59:29.185Z,23.90
2019-06-26T17:01:58.370Z,23.70
2019-06-26T17:04:27.490Z,23.60
2019-06-26T17:06:56.610Z,23.60
2019-06-26T17:09:25.690Z,23.50
2019-06-26T17:11:54.503Z,23.40
2019-06-26T17:14:23.735Z,23.40
2019-06-26T17:16:52.789Z,23.40
2019-06-26T17:19:21.945Z,23.40
2019-06-26T17:21:51.123Z,23.20
2019-06-26T17:24:20.069Z,23.10
2019-06-26T17:26:48.876Z,23.00
2019-06-26T17:29:17.672Z,22.90
2019-06-26T17:31:46.447Z,22.80
2019-06-26T17:34:15.427Z,22.80
2019-06-26T17:36:45.243Z,22.70
2019-06-26T17:39:14.230Z,22.70
2019-06-26T17:41:44.116Z,22.70
2019-06-26T17:44:13.511Z,22.80
2019-06-26T17:46:42.560Z,22.80
2019-06-26T17:49:11.888Z,22.90
2019-06-26T17:51:41.052Z,22.80
2019-06-26T17:54:10.282Z,22.80
2019-06-26T17:56:39.495Z,22.90
2019-06-26T17:59:08.308Z,22.90
2019-06-26T18:01:37.207Z,22.70
2019-06-26T18:04:06.241Z,22.70
2019-06-26T18:06:35.192Z,22.60
2019-06-26T18:09:05.818Z,22.40
2019-06-26T18:11:34.774Z,22.40
2019-06-26T18:14:04.863Z,22.30
2019-06-26T18:16:33.728Z,22.30
2019-06-26T18:19:02.602Z,22.30
2019-06-26T18:21:31.770Z,22.30
2019-06-26T18:24:00.642Z,22.10
2019-06-26T18:26:29.664Z,22.10
2019-06-26T18:29:00.238Z,22.00
2019-06-26T18:31:30.688Z,21.90
2019-06-26T18:33:59.829Z,21.80
2019-06-26T18:36:29.275Z,21.80
2019-06-26T18:38:58.400Z,21.70
2019-06-26T18:41:27.217Z,21.60
2019-06-26T18:43:56.898Z,21.60
2019-06-26T18:46:25.944Z,21.60
2019-06-26T18:48:54.920Z,21.50
2019-06-26T18:51:24.018Z,21.60
2019-06-26T18:53:54.053Z,21.60
2019-06-26T18:56:22.955Z,21.60
2019-06-26T18:58:51.856Z,21.60
2019-06-26T19:01:20.730Z,21.50
2019-06-26T19:03:49.595Z,21.50
2019-06-26T19:06:18.532Z,21.50
2019-06-26T19:08:47.772Z,21.50
2019-06-26T19:11:16.718Z,21.50
2019-06-26T19:13:45.701Z,21.40
2019-06-26T19:16:14.613Z,21.30
2019-06-26T19:18:43.619Z,21.30
2019-06-26T19:21:12.741Z,21.20
2019-06-26T19:23:41.607Z,21.20
2019-06-26T19:26:10.591Z,21.20
2019-06-26T19:28:39.661Z,21.10
2019-06-26T19:31:08.447Z,21.00
2019-06-26T19:33:37.862Z,21.00
2019-06-26T19:36:06.799Z,21.00
2019-06-26T19:38:35.687Z,20.90
2019-06-26T19:41:08.685Z,20.90
2019-06-26T19:43:37.573Z,20.90
2019-06-26T19:46:06.514Z,20.90
2019-06-26T19:48:35.818Z,20.90
2019-06-26T19:51:04.737Z,20.90
2019-06-26T19:53:33.751Z,20.80
2019-06-26T19:56:03.791Z,20.80
2019-06-26T19:58:32.932Z,20.80
2019-06-26T20:01:01.847Z,20.80
2019-06-26T20:03:30.894Z,20.70
2019-06-26T20:05:59.846Z,20.70
2019-06-26T20:08:28.702Z,20.70
2019-06-26T20:10:57.592Z,20.70
2019-06-26T20:13:26.598Z,20.70
2019-06-26T20:15:55.384Z,20.70
2019-06-26T20:18:24.164Z,20.70
2019-06-26T20:20:53.066Z,20.70
2019-06-26T20:23:22.187Z,20.60
2019-06-26T20:25:51.031Z,20.60
2019-06-26T20:28:19.798Z,20.60
2019-06-26T20:30:48.707Z,20.60
2019-06-26T20:33:17.540Z,20.50
2019-06-26T20:35:46.315Z,20.50
2019-06-26T20:38:15.111Z,20.50
2019-06-26T20:40:45.982Z,20.40
2019-06-26T20:43:14.580Z,20.40
2019-06-26T20:45:43.704Z,20.40
2019-06-26T20:48:12.754Z,20.40
2019-06-26T20:50:42.794Z,20.40
2019-06-26T20:53:12.118Z,20.40
2019-06-26T20:55:41.387Z,20.30
2019-06-26T20:58:10.266Z,20.30
2019-06-26T21:00:39.536Z,20.20
2019-06-26T21:03:08.816Z,20.20
2019-06-26T21:05:37.978Z,20.20
2019-06-26T21:08:06.872Z,20.20
2019-06-26T21:10:36.012Z,20.20
2019-06-26T21:13:04.963Z,20.10
2019-06-26T21:15:33.768Z,20.10
2019-06-26T21:18:02.565Z,20.10
2019-06-26T21:20:31.698Z,20.10
2019-06-26T21:23:00.864Z,20.00
2019-06-26T21:25:29.665Z,20.00
2019-06-26T21:27:58.459Z,20.00
2019-06-26T21:30:27.492Z,19.90
2019-06-26T21:32:56.387Z,19.90
2019-06-26T21:35:25.375Z,19.90
2019-06-26T21:37:54.491Z,19.80
2019-06-26T21:40:23.293Z,19.80
2019-06-26T21:42:52.253Z,19.70
2019-06-26T21:45:21.565Z,19.60
2019-06-26T21:47:50.638Z,19.60
2019-06-26T21:50:19.584Z,19.60
2019-06-26T21:52:48.804Z,19.60
2019-06-26T21:55:33.266Z,19.60
2019-06-26T21:57:48.890Z,19.50
2019-06-26T22:00:19.623Z,19.50
2019-06-26T22:02:48.584Z,19.50
2019-06-26T22:05:18.187Z,19.40
2019-06-26T22:08:06.231Z,19.40
2019-06-26T22:10:35.162Z,19.30
2019-06-26T22:13:04.019Z,19.30
2019-06-26T22:15:32.977Z,19.30
2019-06-26T22:18:01.987Z,19.30
2019-06-26T22:20:30.791Z,19.20
2019-06-26T22:22:59.639Z,19.20
2019-06-26T22:25:28.900Z,19.20
2019-06-26T22:27:58.212Z,19.20
2019-06-26T22:30:27.627Z,19.20
2019-06-26T22:32:56.454Z,19.20
2019-06-26T22:35:25.412Z,19.10
2019-06-26T22:37:54.851Z,19.10
2019-06-26T22:40:24.892Z,19.10
2019-06-26T22:42:54.725Z,19.00
2019-06-26T22:45:23.731Z,19.00
2019-06-26T22:47:52.966Z,18.90
2019-06-26T22:50:22.208Z,18.80
2019-06-26T22:52:51.253Z,18.80
2019-06-26T22:55:20.400Z,18.80
2019-06-26T22:57:49.401Z,18.70
2019-06-26T23:00:20.131Z,18.70
2019-06-26T23:02:49.373Z,18.70
2019-06-26T23:05:18.882Z,18.70
2019-06-26T23:07:48.016Z,18.70
2019-06-26T23:10:17.487Z,18.70
2019-06-26T23:12:46.537Z,18.70
2019-06-26T23:15:15.948Z,18.70
2019-06-26T23:17:45.734Z,18.70
2019-06-26T23:20:14.812Z,18.60
2019-06-26T23:22:43.750Z,18.60
2019-06-26T23:25:13.157Z,18.60
2019-06-26T23:27:42.031Z,18.60
2019-06-26T23:30:16.967Z,18.60
2019-06-26T23:32:46.452Z,18.60
2019-06-26T23:35:16.019Z,18.50
2019-06-26T23:37:45.106Z,18.50
2019-06-26T23:40:14.746Z,18.50
2019-06-26T23:42:43.757Z,18.50
2019-06-26T23:45:12.811Z,18.50
2019-06-26T23:47:41.719Z,18.50
2019-06-26T23:50:10.857Z,18.40
2019-06-26T23:52:40.317Z,18.40
2019-06-26T23:55:09.675Z,18.40
2019-06-26T23:57:48.772Z,18.40
